Time;durP1;ratioP1;P1;durP2;ratioP2;P2;SDS_P1;SDS_P2;PMS_P1;PMS_P2;Temp;Humidity;BMP_temperature;BMP_pressure;BME280_temperature;BME280_humidity;BME280_pressure;Samples;Min_cycle;Max_cycle;Signal;HPM_P1;HPM_P2
2021/10/21 00:01:45;;;;;;;7.53;6.77;;;15.90;99.90;;;;;;4956703;28;20184;-83
2021/10/21 00:04:11;;;;;;;10.20;7.67;;;16.10;99.90;;;;;;4973320;28;20185;-84
2021/10/21 00:06:37;;;;;;;8.52;7.78;;;15.80;99.90;;;;;;4957810;28;20192;-83
2021/10/21 00:09:03;;;;;;;7.37;6.60;;;16.10;99.90;;;;;;4954231;28;20752;-83
2021/10/21 00:11:30;;;;;;;7.00;6.40;;;15.80;99.90;;;;;;4965399;28;20185;-83
2021/10/21 00:13:55;;;;;;;6.85;6.15;;;16.00;99.90;;;;;;4956859;28;20180;-83
2021/10/21 00:16:21;;;;;;;5.80;5.20;;;15.80;99.90;;;;;;4958478;28;20215;-83
2021/10/21 00:18:49;;;;;;;5.80;5.00;;;16.00;99.90;;;;;;4952877;28;20710;-83
2021/10/21 00:21:15;;;;;;;6.25;5.65;;;16.00;99.90;;;;;;4959005;28;20184;-83
2021/10/21 00:23:40;;;;;;;7.67;6.97;;;15.80;99.90;;;;;;4958442;28;20179;-83
2021/10/21 00:26:08;;;;;;;7.83;7.03;;;15.60;99.90;;;;;;4973631;28;20439;-83
2021/10/21 00:28:35;;;;;;;7.00;6.30;;;15.70;99.90;;;;;;4959976;28;20212;-82
2021/10/21 00:31:01;;;;;;;9.68;7.57;;;15.50;99.90;;;;;;4958769;28;20195;-83
2021/10/21 00:33:26;;;;;;;7.13;6.40;;;15.50;99.90;;;;;;4958518;28;20192;-83
2021/10/21 00:35:52;;;;;;;5.90;5.40;;;15.90;99.90;;;;;;4956552;28;20211;-83
2021/10/21 00:38:18;;;;;;;6.20;5.60;;;15.90;99.90;;;;;;4953820;28;20295;-84
2021/10/21 00:40:43;;;;;;;6.67;6.07;;;16.10;99.90;;;;;;4951788;28;20272;-83
2021/10/21 00:43:09;;;;;;;7.00;6.30;;;16.10;99.90;;;;;;4977684;28;20264;-83
2021/10/21 00:45:34;;;;;;;7.27;6.03;;;15.50;99.90;;;;;;4954918;28;20207;-83
2021/10/21 00:48:00;;;;;;;6.67;5.60;;;15.90;99.90;;;;;;4954256;28;20208;-83
2021/10/21 00:50:25;;;;;;;6.70;6.07;;;15.60;99.90;;;;;;4960200;28;20640;-83
2021/10/21 00:52:52;;;;;;;6.50;5.93;;;15.80;99.90;;;;;;4955500;28;20211;-83
2021/10/21 00:55:19;;;;;;;6.88;6.10;;;16.10;99.90;;;;;;4973732;28;20675;-83
2021/10/21 00:57:44;;;;;;;6.20;5.60;;;16.20;99.90;;;;;;4977712;28;20732;-83
2021/10/21 01:00:10;;;;;;;6.67;6.07;;;15.80;99.90;;;;;;4978613;28;20275;-83
2021/10/21 01:02:37;;;;;;;6.75;6.15;;;16.10;99.90;;;;;;4958403;28;20267;-82
2021/10/21 01:05:03;;;;;;;8.93;7.63;;;16.10;99.90;;;;;;4953982;28;20194;-84
2021/10/21 01:07:29;;;;;;;6.10;5.50;;;16.10;99.90;;;;;;4956168;28;20251;-83
2021/10/21 01:09:56;;;;;;;6.13;5.63;;;16.00;99.90;;;;;;4957295;28;20560;-83
2021/10/21 01:12:21;;;;;;;5.75;5.25;;;15.70;99.90;;;;;;4952860;28;20219;-83
2021/10/21 01:14:47;;;;;;;5.40;4.90;;;15.80;99.90;;;;;;4974565;28;20243;-84
2021/10/21 01:17:16;;;;;;;7.27;5.80;;;16.00;99.90;;;;;;4951759;28;20227;-83
2021/10/21 01:19:42;;;;;;;5.68;5.13;;;15.90;99.90;;;;;;4971145;28;20677;-84
2021/10/21 01:22:08;;;;;;;6.07;5.53;;;15.50;99.90;;;;;;4956189;28;20185;-83
2021/10/21 01:24:34;;;;;;;6.33;5.77;;;15.40;99.90;;;;;;4953997;28;20184;-83
2021/10/21 01:26:59;;;;;;;5.70;5.13;;;15.40;99.90;;;;;;4947157;28;20208;-83
2021/10/21 01:29:26;;;;;;;6.33;5.83;;;15.80;99.90;;;;;;4954750;28;20188;-82
2021/10/21 01:31:53;;;;;;;6.30;5.80;;;15.60;99.90;;;;;;4972273;28;20435;-83
2021/10/21 01:34:19;;;;;;;6.50;5.90;;;15.60;99.90;;;;;;4955560;28;20268;-82
2021/10/21 01:36:51;;;;;;;6.23;5.70;;;15.40;99.90;;;;;;4954321;28;20263;-83
2021/10/21 01:39:16;;;;;;;6.22;5.65;;;15.80;99.90;;;;;;4953895;28;20447;-83
2021/10/21 01:41:42;;;;;;;6.20;5.70;;;15.30;99.90;;;;;;4963129;28;20238;-83
2021/10/21 01:44:07;;;;;;;6.17;5.57;;;15.80;99.90;;;;;;4953747;28;20184;-83
2021/10/21 01:46:33;;;;;;;5.97;5.37;;;16.10;99.90;;;;;;4955595;28;20238;-83
2021/10/21 01:48:59;;;;;;;6.17;5.57;;;15.70;99.90;;;;;;4953643;28;20204;-84
2021/10/21 01:51:24;;;;;;;6.10;5.60;;;15.40;99.90;;;;;;4959335;28;20436;-83
2021/10/21 01:53:50;;;;;;;6.20;5.40;;;15.30;99.90;;;;;;4954821;28;20558;-84
2021/10/21 01:56:15;;;;;;;6.40;5.27;;;15.30;99.90;;;;;;4973400;28;20220;-84
2021/10/21 01:58:41;;;;;;;6.10;5.50;;;15.20;99.90;;;;;;4952713;28;20530;-84
2021/10/21 02:01:06;;;;;;;6.17;5.10;;;15.40;99.90;;;;;;4967407;28;20193;-83
2021/10/21 02:03:32;;;;;;;5.43;4.93;;;15.30;99.90;;;;;;4954326;28;20655;-83
2021/10/21 02:05:58;;;;;;;5.70;5.23;;;15.50;99.90;;;;;;4957587;28;20188;-83
2021/10/21 02:08:23;;;;;;;5.03;4.63;;;15.40;99.90;;;;;;4975847;28;20239;-83
2021/10/21 02:10:49;;;;;;;5.10;4.70;;;15.80;99.90;;;;;;4956755;28;20443;-83
2021/10/21 02:13:15;;;;;;;4.97;4.50;;;15.80;99.90;;;;;;4960628;28;20188;-83
2021/10/21 02:15:41;;;;;;;4.80;4.00;;;15.50;99.90;;;;;;4956361;28;20543;-83
2021/10/21 02:18:07;;;;;;;5.20;4.47;;;15.90;99.90;;;;;;4962825;28;20216;-83
2021/10/21 02:20:33;;;;;;;4.20;3.90;;;15.90;99.90;;;;;;4955924;28;20239;-83
2021/10/21 02:22:59;;;;;;;3.90;3.40;;;15.50;99.90;;;;;;4958222;28;20186;-83
2021/10/21 02:25:25;;;;;;;4.90;3.67;;;16.00;99.90;;;;;;4952446;28;20217;-84
2021/10/21 02:27:51;;;;;;;4.57;4.00;;;15.70;99.90;;;;;;4956860;28;20228;-83
2021/10/21 02:30:17;;;;;;;3.60;3.30;;;15.70;99.90;;;;;;4962415;28;20188;-83
2021/10/21 02:32:44;;;;;;;4.43;4.03;;;16.00;99.90;;;;;;4972359;28;21014;-83
2021/10/21 02:35:11;;;;;;;4.07;3.67;;;16.00;99.90;;;;;;4973685;28;20208;-83
2021/10/21 02:37:37;;;;;;;3.75;3.28;;;15.70;99.90;;;;;;4957044;28;20747;-83
2021/10/21 02:40:05;;;;;;;3.63;3.33;;;16.00;99.90;;;;;;4952232;28;20283;-82
2021/10/21 02:42:31;;;;;;;2.90;2.70;;;16.00;99.90;;;;;;4955633;28;20447;-83
2021/10/21 02:44:56;;;;;;;4.10;3.13;;;15.60;99.90;;;;;;4956689;28;20189;-84
2021/10/21 02:47:22;;;;;;;2.93;2.73;;;15.60;99.90;;;;;;4954708;28;20212;-83
2021/10/21 02:49:47;;;;;;;2.83;2.63;;;15.80;99.90;;;;;;4952180;28;20184;-83
2021/10/21 02:52:13;;;;;;;3.40;3.10;;;15.80;99.90;;;;;;4955710;28;20196;-83
2021/10/21 02:54:38;;;;;;;2.87;2.67;;;15.80;99.90;;;;;;4972256;28;20600;-83
2021/10/21 02:57:04;;;;;;;3.50;3.20;;;16.30;99.90;;;;;;4956781;28;20649;-83
2021/10/21 02:59:30;;;;;;;3.53;3.23;;;16.00;99.90;;;;;;4959984;28;20304;-84
2021/10/21 03:01:55;;;;;;;3.10;2.80;;;16.30;99.90;;;;;;4956133;28;20191;-84
2021/10/21 03:04:21;;;;;;;4.10;3.10;;;15.90;99.90;;;;;;4977674;28;20239;-83
2021/10/21 03:06:47;;;;;;;3.23;2.93;;;16.30;99.90;;;;;;4955358;28;20506;-83
2021/10/21 03:09:13;;;;;;;4.00;2.97;;;16.60;99.90;;;;;;4959089;28;20446;-83
2021/10/21 03:11:38;;;;;;;2.70;2.50;;;16.40;99.90;;;;;;4959730;28;20873;-83
2021/10/21 03:14:04;;;;;;;3.20;2.90;;;16.60;99.90;;;;;;4957471;28;20183;-83
2021/10/21 03:16:34;;;;;;;3.05;2.47;;;16.00;99.90;;;;;;4962366;28;20310;-84
2021/10/21 03:19:00;;;;;;;2.50;2.30;;;16.00;99.90;;;;;;4957370;28;20195;-83
2021/10/21 03:21:26;;;;;;;3.20;2.90;;;16.50;99.90;;;;;;4960333;28;20184;-83
2021/10/21 03:23:51;;;;;;;2.87;2.67;;;16.30;99.90;;;;;;4959802;28;20188;-82
2021/10/21 03:26:17;;;;;;;2.67;2.47;;;16.30;99.90;;;;;;4954858;28;20220;-83
2021/10/21 03:28:43;;;;;;;2.80;2.57;;;16.60;99.90;;;;;;4982257;28;20215;-83
2021/10/21 03:31:08;;;;;;;3.30;2.37;;;16.20;99.90;;;;;;4956792;28;20611;-82
2021/10/21 03:33:34;;;;;;;3.60;2.50;;;16.20;99.90;;;;;;4971191;28;20212;-83
2021/10/21 03:35:59;;;;;;;2.90;2.10;;;16.30;99.90;;;;;;4955118;28;20223;-83
2021/10/21 03:38:25;;;;;;;2.67;2.17;;;16.20;99.90;;;;;;4957806;28;20206;-83
2021/10/21 03:40:50;;;;;;;2.40;2.13;;;16.50;99.90;;;;;;4954995;28;20189;-83
2021/10/21 03:43:16;;;;;;;8.57;2.30;;;16.50;99.90;;;;;;4960627;28;20593;-83
2021/10/21 03:45:42;;;;;;;1.80;1.70;;;16.00;99.90;;;;;;4951267;28;20190;-83
2021/10/21 03:48:08;;;;;;;1.83;1.52;;;16.30;99.90;;;;;;4964848;28;20215;-83
2021/10/21 03:50:33;;;;;;;1.77;1.63;;;16.10;99.90;;;;;;4964108;28;20186;-83
2021/10/21 03:52:59;;;;;;;1.83;1.73;;;16.20;99.90;;;;;;4970472;28;20251;-82
2021/10/21 03:55:25;;;;;;;1.60;1.50;;;16.50;99.90;;;;;;4957427;28;20222;-82
2021/10/21 03:57:50;;;;;;;1.53;1.30;;;16.30;99.90;;;;;;4955087;28;20685;-83
2021/10/21 04:00:16;;;;;;;1.30;1.20;;;16.20;99.90;;;;;;4959896;28;20188;-82
2021/10/21 04:02:41;;;;;;;1.40;1.30;;;16.00;99.90;;;;;;4957304;28;20631;-83
2021/10/21 04:05:07;;;;;;;1.60;1.50;;;16.50;99.90;;;;;;4974022;28;20216;-83
2021/10/21 04:07:34;;;;;;;1.35;1.25;;;16.40;99.90;;;;;;4989825;23;20226;-83
2021/10/21 04:10:00;;;;;;;1.33;1.23;;;16.40;99.90;;;;;;4971954;28;20196;-82
2021/10/21 04:12:25;;;;;;;1.27;1.17;;;16.50;99.90;;;;;;4977832;28;20236;-83
2021/10/21 04:14:51;;;;;;;4.33;2.27;;;16.40;99.90;;;;;;4975094;28;20605;-83
2021/10/21 04:17:19;;;;;;;1.20;1.10;;;16.10;99.90;;;;;;4968863;28;20255;-83
2021/10/21 04:19:45;;;;;;;1.20;1.10;;;16.10;99.90;;;;;;4986128;28;20183;-83
2021/10/21 04:22:11;;;;;;;1.60;0.90;;;16.00;99.90;;;;;;4962825;28;20190;-82
2021/10/21 04:24:36;;;;;;;4.53;1.10;;;16.10;99.90;;;;;;4968327;28;20179;-83
2021/10/21 04:27:02;;;;;;;1.30;1.10;;;16.20;99.90;;;;;;4985183;28;20290;-83
2021/10/21 04:29:28;;;;;;;3.00;1.00;;;16.20;99.90;;;;;;4960097;28;20256;-83
2021/10/21 04:31:53;;;;;;;2.83;1.07;;;15.80;99.90;;;;;;4965476;28;20179;-83
2021/10/21 04:34:19;;;;;;;1.30;1.00;;;15.80;99.90;;;;;;4965506;28;20661;-83
2021/10/21 04:36:44;;;;;;;1.70;1.00;;;15.80;99.90;;;;;;4965382;28;20179;-82
2021/10/21 04:39:10;;;;;;;2.20;0.90;;;15.60;99.90;;;;;;4980532;28;20258;-83
2021/10/21 04:41:35;;;;;;;4.10;1.27;;;16.10;99.90;;;;;;4986154;28;20175;-83
2021/10/21 04:44:01;;;;;;;4.10;1.00;;;15.70;99.90;;;;;;4963404;28;20187;-82
2021/10/21 04:46:27;;;;;;;3.40;1.20;;;15.90;99.90;;;;;;4982123;28;20195;-83
2021/10/21 04:48:53;;;;;;;6.00;1.30;;;16.20;99.90;;;;;;4972643;28;20673;-83
2021/10/21 04:51:18;;;;;;;1.42;1.00;;;15.40;99.10;;;;;;4958308;28;20619;-83
2021/10/21 04:53:44;;;;;;;2.60;1.17;;;15.80;99.30;;;;;;4962756;28;20210;-82
2021/10/21 04:56:11;;;;;;;2.00;0.93;;;15.70;99.20;;;;;;4969772;28;20246;-82
2021/10/21 04:58:37;;;;;;;2.80;0.85;;;15.40;99.90;;;;;;4988831;28;20255;-84
2021/10/21 05:01:02;;;;;;;1.47;0.80;;;15.60;99.10;;;;;;4972067;28;20797;-83
2021/10/21 05:03:28;;;;;;;0.90;0.83;;;15.30;98.20;;;;;;4983882;28;20679;-84
2021/10/21 05:05:53;;;;;;;3.60;0.90;;;15.20;98.50;;;;;;4969287;28;20187;-84
2021/10/21 05:08:19;;;;;;;4.67;1.20;;;15.10;97.60;;;;;;4977883;28;20234;-82
2021/10/21 05:10:44;;;;;;;1.63;0.90;;;15.20;97.20;;;;;;4975458;28;20195;-82
2021/10/21 05:13:12;;;;;;;2.70;1.00;;;15.20;96.40;;;;;;4984155;28;20265;-83
2021/10/21 05:15:38;;;;;;;2.05;0.90;;;15.40;96.70;;;;;;4984366;28;20208;-83
2021/10/21 05:18:04;;;;;;;1.77;0.80;;;15.00;96.10;;;;;;4978106;28;20680;-83
2021/10/21 05:20:29;;;;;;;5.60;1.63;;;15.20;95.70;;;;;;4981289;28;20190;-82
2021/10/21 05:22:55;;;;;;;1.70;1.00;;;15.10;95.70;;;;;;4989247;28;20628;-83
2021/10/21 05:25:20;;;;;;;2.60;0.90;;;15.10;95.60;;;;;;4984694;28;20191;-82
2021/10/21 05:27:46;;;;;;;2.30;1.07;;;14.70;94.90;;;;;;4984606;28;20203;-81
2021/10/21 05:30:12;;;;;;;5.43;1.13;;;14.60;94.30;;;;;;4981095;28;20196;-82
2021/10/21 05:32:37;;;;;;;3.30;1.00;;;15.10;94.60;;;;;;4988676;28;20246;-82
2021/10/21 05:35:04;;;;;;;3.63;1.00;;;14.60;94.00;;;;;;4989808;28;20554;-82
2021/10/21 05:37:29;;;;;;;5.30;0.90;;;15.00;94.50;;;;;;4973241;28;21178;-82
2021/10/21 05:39:55;;;;;;;3.17;0.90;;;15.00;94.40;;;;;;4963479;28;20270;-82
2021/10/21 05:42:21;;;;;;;5.53;1.00;;;15.00;94.70;;;;;;4966810;28;20177;-92
2021/10/21 05:44:47;;;;;;;2.40;1.27;;;15.10;94.80;;;;;;4975360;28;20438;-96
2021/10/21 05:47:13;;;;;;;1.25;1.00;;;15.00;95.10;;;;;;4982256;23;20570;-57
2021/10/21 05:49:39;;;;;;;2.60;1.23;;;14.90;95.40;;;;;;4986145;28;20587;-57
2021/10/21 05:52:04;;;;;;;2.07;1.10;;;14.80;95.30;;;;;;4975182;28;20188;-56
2021/10/21 05:54:30;;;;;;;3.13;0.97;;;14.90;95.90;;;;;;4972241;28;20184;-56
2021/10/21 05:56:56;;;;;;;3.93;1.03;;;14.90;95.20;;;;;;4974844;28;20218;-56
2021/10/21 05:59:21;;;;;;;2.60;1.33;;;14.70;94.90;;;;;;4974601;28;20734;-56
2021/10/21 06:01:47;;;;;;;3.20;1.20;;;14.80;95.10;;;;;;4974275;28;20314;-56
2021/10/21 06:04:13;;;;;;;2.63;1.13;;;14.90;95.20;;;;;;4977070;28;20253;-57
2021/10/21 06:06:39;;;;;;;2.70;1.40;;;14.70;95.30;;;;;;4974647;28;20706;-56
2021/10/21 06:09:05;;;;;;;4.38;1.02;;;14.80;95.80;;;;;;4977582;28;20200;-57
2021/10/21 06:11:32;;;;;;;2.92;1.33;;;14.70;94.80;;;;;;4972852;28;20680;-56
2021/10/21 06:14:01;;;;;;;2.72;1.30;;;14.80;94.80;;;;;;4955278;28;20204;-56
2021/10/21 06:16:27;;;;;;;4.10;1.13;;;14.80;95.10;;;;;;4972482;28;20563;-56
2021/10/21 06:18:53;;;;;;;3.23;1.27;;;14.40;94.80;;;;;;4973630;28;20200;-56
2021/10/21 06:21:22;;;;;;;3.60;1.17;;;14.40;94.70;;;;;;4971614;28;20546;-56
2021/10/21 06:23:48;;;;;;;1.88;1.00;;;14.60;94.60;;;;;;4967580;28;20327;-57
2021/10/21 06:26:17;;;;;;;2.80;1.00;;;14.70;94.60;;;;;;4971467;28;20699;-55
2021/10/21 06:28:51;;;;;;;3.22;0.98;;;14.60;94.00;;;;;;4972006;28;20534;-57
2021/10/21 06:31:18;;;;;;;3.38;1.08;;;14.60;94.40;;;;;;4978209;28;20187;-56
2021/10/21 06:33:44;;;;;;;5.18;1.50;;;14.60;94.50;;;;;;4978965;28;20189;-56
2021/10/21 06:36:10;;;;;;;4.50;1.77;;;14.60;93.80;;;;;;4974898;28;20272;-56
2021/10/21 06:38:37;;;;;;;4.25;1.10;;;14.70;93.80;;;;;;4980621;28;20208;-56
2021/10/21 06:41:03;;;;;;;3.80;1.25;;;14.70;93.40;;;;;;4972848;28;20226;-56
2021/10/21 06:43:29;;;;;;;5.38;3.25;;;14.80;93.40;;;;;;4975839;28;20188;-55
2021/10/21 06:45:55;;;;;;;2.95;1.40;;;14.60;93.40;;;;;;4974210;28;20188;-56
2021/10/21 06:48:21;;;;;;;6.53;2.10;;;14.50;93.10;;;;;;4973694;28;20574;-55
2021/10/21 06:50:46;;;;;;;2.43;0.83;;;14.80;93.00;;;;;;4975856;28;20195;-57
2021/10/21 06:53:12;;;;;;;11.97;1.50;;;14.60;92.90;;;;;;4973809;28;20192;-57
2021/10/21 06:55:38;;;;;;;2.93;1.17;;;14.50;92.90;;;;;;4959355;28;20203;-54
2021/10/21 06:58:03;;;;;;;1.97;1.40;;;14.50;92.70;;;;;;4971970;28;20186;-56
2021/10/21 07:00:37;;;;;;;5.50;0.97;;;14.80;93.10;;;;;;4972140;28;20204;-57
2021/10/21 07:03:03;;;;;;;5.25;1.05;;;14.60;92.70;;;;;;4974682;28;20188;-57
2021/10/21 07:05:32;;;;;;;4.03;1.37;;;14.90;93.00;;;;;;4975702;28;20532;-57
2021/10/21 07:07:58;;;;;;;3.15;0.93;;;14.70;92.50;;;;;;4971806;28;20479;-58
2021/10/21 07:10:23;;;;;;;4.17;1.27;;;14.80;92.50;;;;;;4970934;28;20246;-58
2021/10/21 07:12:49;;;;;;;6.47;1.47;;;15.10;92.50;;;;;;4975638;28;20211;-57
2021/10/21 07:15:15;;;;;;;3.20;1.10;;;14.80;92.10;;;;;;4976567;28;20222;-58
2021/10/21 07:17:41;;;;;;;6.40;1.37;;;15.20;92.10;;;;;;4975598;28;20183;-57
2021/10/21 07:20:08;;;;;;;2.22;1.17;;;14.90;91.50;;;;;;4973198;28;20541;-57
2021/10/21 07:22:35;;;;;;;8.60;2.53;;;15.00;91.50;;;;;;4969235;28;20189;-55
2021/10/21 07:25:00;;;;;;;5.50;0.90;;;15.10;91.70;;;;;;4970318;28;20196;-57
2021/10/21 07:27:27;;;;;;;1.93;1.07;;;15.10;91.80;;;;;;4973738;28;20791;-57
2021/10/21 07:29:52;;;;;;;3.58;1.02;;;15.10;91.80;;;;;;4970844;28;20479;-57
2021/10/21 07:32:18;;;;;;;2.60;1.50;;;15.20;91.90;;;;;;4967356;28;20251;-57
2021/10/21 07:34:44;;;;;;;3.93;1.23;;;15.10;91.20;;;;;;4971895;28;20211;-58
2021/10/21 07:37:10;;;;;;;2.63;1.17;;;15.10;91.20;;;;;;4972456;28;20653;-56
2021/10/21 07:39:36;;;;;;;2.35;0.95;;;15.50;91.50;;;;;;4968352;28;20204;-56
2021/10/21 07:42:02;;;;;;;3.27;1.10;;;15.50;91.10;;;;;;4952333;28;20192;-57
2021/10/21 07:44:33;;;;;;;2.72;1.00;;;15.80;91.10;;;;;;4954449;28;20220;-58
2021/10/21 07:47:00;;;;;;;2.55;0.80;;;16.10;90.80;;;;;;4969259;28;20180;-57
2021/10/21 07:49:27;;;;;;;3.53;1.00;;;15.70;90.40;;;;;;4971800;28;20677;-56
2021/10/21 07:51:53;;;;;;;2.13;1.00;;;15.70;90.40;;;;;;4972785;28;20180;-57
2021/10/21 07:54:19;;;;;;;2.45;0.93;;;15.90;90.20;;;;;;4971857;28;20188;-58
2021/10/21 07:56:45;;;;;;;2.20;0.90;;;15.90;90.00;;;;;;4971590;28;20184;-58
2021/10/21 07:59:11;;;;;;;2.95;1.00;;;16.00;89.40;;;;;;4971299;28;20196;-59
2021/10/21 08:01:37;;;;;;;3.73;0.90;;;16.10;89.30;;;;;;4976128;28;20261;-60
2021/10/21 08:04:03;;;;;;;1.63;0.93;;;15.80;88.60;;;;;;4972699;28;20442;-59
2021/10/21 08:06:29;;;;;;;2.20;0.70;;;16.00;88.80;;;;;;4971556;28;20372;-59
2021/10/21 08:08:56;;;;;;;2.17;1.00;;;15.90;88.50;;;;;;4971191;28;20219;-57
2021/10/21 08:11:21;;;;;;;1.05;0.63;;;15.70;88.80;;;;;;4970892;28;20431;-56
2021/10/21 08:13:47;;;;;;;4.53;0.90;;;15.80;88.40;;;;;;4971970;28;20192;-56
2021/10/21 08:16:12;;;;;;;1.63;1.00;;;15.70;89.00;;;;;;4976633;28;20215;-57
2021/10/21 08:18:38;;;;;;;3.37;1.27;;;15.70;88.10;;;;;;4976625;28;20566;-59
2021/10/21 08:21:04;;;;;;;1.80;0.70;;;16.00;87.50;;;;;;4953875;28;20562;-56
2021/10/21 08:23:29;;;;;;;3.77;0.70;;;15.80;87.20;;;;;;4955142;28;20180;-57
2021/10/21 08:25:55;;;;;;;0.80;0.60;;;15.60;88.50;;;;;;4974505;28;20192;-56
2021/10/21 08:28:21;;;;;;;3.27;0.77;;;15.60;87.30;;;;;;4971288;28;20196;-57
2021/10/21 08:30:46;;;;;;;2.23;0.60;;;15.70;87.70;;;;;;4971721;28;20270;-58
2021/10/21 08:33:13;;;;;;;3.23;1.00;;;16.10;87.10;;;;;;4971496;28;20189;-58
2021/10/21 08:35:39;;;;;;;3.33;0.85;;;15.80;87.10;;;;;;4978703;28;20199;-58
2021/10/21 08:38:04;;;;;;;0.60;0.50;;;16.10;87.40;;;;;;4956385;28;20203;-58
2021/10/21 08:40:32;;;;;;;1.90;0.80;;;16.30;86.50;;;;;;4973061;28;20576;-58
2021/10/21 08:43:00;;;;;;;1.33;0.77;;;16.10;86.00;;;;;;4971650;28;20239;-57
2021/10/21 08:45:27;;;;;;;2.35;0.70;;;16.30;86.60;;;;;;4970602;28;20211;-57
2021/10/21 08:47:56;;;;;;;2.15;0.70;;;16.10;87.60;;;;;;4968052;28;20243;-58
2021/10/21 08:50:23;;;;;;;1.40;0.77;;;15.90;87.70;;;;;;4969535;28;20303;-57
2021/10/21 08:52:49;;;;;;;4.20;0.73;;;16.10;88.60;;;;;;4970233;28;20184;-57
2021/10/21 08:55:15;;;;;;;1.38;0.73;;;16.40;87.90;;;;;;4969563;28;20212;-56
2021/10/21 08:57:42;;;;;;;4.50;0.80;;;15.70;90.20;;;;;;4970081;28;20566;-56
2021/10/21 09:00:08;;;;;;;3.70;0.80;;;15.60;90.80;;;;;;4970697;28;20239;-58
2021/10/21 09:07:57;;;;;;;1.90;0.60;;;15.40;92.20;;;;;;4970306;28;20533;-58
2021/10/21 09:10:24;;;;;;;1.60;0.70;;;15.40;91.90;;;;;;4966629;28;20235;-58
2021/10/21 09:12:50;;;;;;;1.75;0.68;;;15.00;92.20;;;;;;4968097;28;20192;-59
2021/10/21 09:15:26;;;;;;;1.25;0.50;;;15.10;93.00;;;;;;4973340;28;20208;-58
2021/10/21 09:17:54;;;;;;;2.25;0.60;;;15.00;92.20;;;;;;4980031;28;20708;-57
2021/10/21 09:20:20;;;;;;;1.05;0.55;;;15.00;92.20;;;;;;4972925;28;20211;-58
2021/10/21 09:22:54;;;;;;;2.00;0.70;;;15.10;92.70;;;;;;4955389;28;20180;-58
2021/10/21 09:25:27;;;;;;;0.90;0.50;;;15.10;92.70;;;;;;4968554;28;20214;-58
2021/10/21 09:27:55;;;;;;;0.90;0.70;;;14.90;92.00;;;;;;4977562;28;20188;-57
2021/10/21 09:30:29;;;;;;;0.88;0.60;;;15.20;92.30;;;;;;4973601;28;20208;-56
2021/10/21 09:33:01;;;;;;;3.05;1.60;;;15.30;92.40;;;;;;4974273;28;20186;-56
2021/10/21 09:35:27;;;;;;;2.20;0.70;;;15.00;92.30;;;;;;4973690;28;20206;-56
2021/10/21 09:37:54;;;;;;;1.10;1.00;;;15.00;92.70;;;;;;4978530;28;20270;-56
2021/10/21 09:40:30;;;;;;;1.60;0.65;;;15.00;92.60;;;;;;4972384;28;20208;-58
2021/10/21 09:42:57;;;;;;;1.60;0.70;;;14.90;92.90;;;;;;4973939;28;20238;-58
2021/10/21 09:45:35;;;;;;;4.05;1.77;;;14.80;93.00;;;;;;4972872;28;20192;-57
2021/10/21 09:48:06;;;;;;;2.03;0.70;;;14.80;92.80;;;;;;4964553;28;20271;-59
2021/10/21 09:50:46;;;;;;;0.80;0.50;;;15.30;92.40;;;;;;4970560;28;20284;-59
2021/10/21 09:53:20;;;;;;;0.80;0.57;;;15.30;91.80;;;;;;4973952;28;20192;-58
2021/10/21 09:56:08;;;;;;;1.45;0.63;;;15.10;90.00;;;;;;4973559;28;20263;-58
2021/10/21 09:58:39;;;;;;;1.15;0.60;;;16.40;88.10;;;;;;4954947;28;20211;-59
2021/10/21 10:01:10;;;;;;;0.90;0.60;;;17.10;84.00;;;;;;4978152;28;20238;-58
2021/10/21 10:03:41;;;;;;;0.70;0.70;;;17.00;82.10;;;;;;4971518;28;20185;-59
2021/10/21 10:06:07;;;;;;;1.17;0.70;;;16.70;82.40;;;;;;4973564;28;20232;-58
2021/10/21 10:08:33;;;;;;;0.80;0.60;;;17.00;81.40;;;;;;4972639;28;20189;-58
2021/10/21 10:11:02;;;;;;;1.30;1.00;;;16.90;79.00;;;;;;4971102;28;20201;-55
2021/10/21 10:13:28;;;;;;;1.95;0.60;;;17.10;76.90;;;;;;4969033;28;20239;-55
2021/10/21 10:15:57;;;;;;;0.77;0.60;;;17.40;76.00;;;;;;4971012;28;20691;-55
2021/10/21 10:18:28;;;;;;;2.15;0.80;;;17.50;75.00;;;;;;4970714;28;20510;-57
2021/10/21 10:21:03;;;;;;;0.98;0.80;;;17.60;74.90;;;;;;4952960;28;20605;-57
2021/10/21 10:23:31;;;;;;;0.80;0.60;;;17.80;74.30;;;;;;4963320;28;20187;-58
2021/10/21 10:25:57;;;;;;;1.10;0.70;;;17.70;73.70;;;;;;4973405;28;20181;-57
2021/10/21 10:28:22;;;;;;;1.77;0.80;;;17.60;74.10;;;;;;4968347;28;20254;-58
2021/10/21 10:30:53;;;;;;;1.13;0.80;;;18.10;73.60;;;;;;4971649;28;20196;-57
2021/10/21 10:33:31;;;;;;;2.30;1.17;;;18.00;71.20;;;;;;4971832;28;20191;-57
2021/10/21 10:36:26;;;;;;;1.70;1.40;;;18.50;70.40;;;;;;4973402;28;20211;-57
2021/10/21 10:38:56;;;;;;;1.77;1.02;;;18.60;69.70;;;;;;4966611;28;20207;-56
2021/10/21 10:41:40;;;;;;;1.67;0.80;;;18.50;70.00;;;;;;4966283;28;20664;-57
2021/10/21 10:44:06;;;;;;;3.15;1.00;;;18.80;70.60;;;;;;4980983;28;20198;-58
2021/10/21 10:46:51;;;;;;;1.43;0.70;;;19.50;69.80;;;;;;4972081;28;20720;-58
2021/10/21 10:49:41;;;;;;;1.67;0.70;;;20.20;67.60;;;;;;4972822;28;20295;-57
2021/10/21 10:52:12;;;;;;;1.90;0.90;;;20.10;67.90;;;;;;4971888;28;20188;-57
2021/10/21 10:54:46;;;;;;;1.08;0.68;;;19.10;70.30;;;;;;4971029;28;20295;-59
2021/10/21 10:57:32;;;;;;;1.80;1.10;;;19.00;71.10;;;;;;4974098;28;20191;-57
2021/10/21 10:59:59;;;;;;;2.75;0.88;;;19.10;70.70;;;;;;4951688;28;20251;-57
2021/10/21 11:02:25;;;;;;;4.93;1.08;;;18.70;71.50;;;;;;4977752;28;20867;-57
2021/10/21 11:04:54;;;;;;;4.50;1.50;;;18.80;71.10;;;;;;4973885;28;20279;-56
2021/10/21 11:07:21;;;;;;;2.83;0.93;;;18.60;71.70;;;;;;4973797;28;20447;-56
2021/10/21 11:09:47;;;;;;;2.55;1.20;;;18.50;71.10;;;;;;4971254;28;20206;-56
2021/10/21 11:12:24;;;;;;;4.05;1.10;;;18.50;70.00;;;;;;4973027;28;20196;-56
2021/10/21 11:14:54;;;;;;;3.00;1.10;;;18.10;69.90;;;;;;4976552;28;20199;-56
2021/10/21 11:17:39;;;;;;;3.03;0.80;;;18.00;72.10;;;;;;4973334;28;20191;-57
2021/10/21 11:20:05;;;;;;;3.67;0.80;;;18.30;71.50;;;;;;4972041;28;20214;-57
2021/10/21 11:22:31;;;;;;;1.98;1.10;;;18.40;70.00;;;;;;4978482;28;20191;-57
2021/10/21 11:25:03;;;;;;;2.83;1.00;;;18.40;69.70;;;;;;4975238;28;20188;-57
2021/10/21 11:27:37;;;;;;;4.47;1.30;;;18.00;68.80;;;;;;4972327;28;20188;-56
2021/10/21 11:30:24;;;;;;;7.32;1.35;;;17.70;71.20;;;;;;4973742;28;20213;-56
2021/10/21 11:32:55;;;;;;;2.72;1.10;;;17.50;71.10;;;;;;4973417;28;20645;-56
2021/10/21 11:35:23;;;;;;;2.55;0.70;;;17.40;71.10;;;;;;4959894;28;20318;-57
2021/10/21 11:37:52;;;;;;;3.00;1.25;;;17.40;72.50;;;;;;4978331;28;20323;-56
2021/10/21 11:40:57;;;;;;;2.05;0.70;;;17.20;72.30;;;;;;4963918;28;20219;-57
2021/10/21 11:43:46;;;;;;;1.60;1.00;;;17.00;73.00;;;;;;4970823;28;20723;-57
2021/10/21 11:46:20;;;;;;;1.48;0.75;;;16.60;72.60;;;;;;4975743;28;20636;-57
2021/10/21 11:48:46;;;;;;;1.58;0.80;;;16.70;73.50;;;;;;4975011;28;20693;-57
2021/10/21 11:51:14;;;;;;;2.70;0.90;;;16.40;72.70;;;;;;4971002;28;20195;-58
2021/10/21 11:53:41;;;;;;;2.20;0.95;;;16.40;74.20;;;;;;4968475;28;20265;-64
2021/10/21 11:56:07;;;;;;;1.05;0.80;;;16.40;73.40;;;;;;4968099;28;20216;-56
2021/10/21 11:58:36;;;;;;;1.63;0.80;;;16.30;74.30;;;;;;4973507;28;20207;-57
2021/10/21 12:01:07;;;;;;;1.15;1.00;;;15.60;74.20;;;;;;4979073;28;20451;-57
2021/10/21 12:03:38;;;;;;;2.10;0.88;;;16.30;76.40;;;;;;4982118;28;20199;-56
2021/10/21 12:06:05;;;;;;;3.05;1.00;;;15.90;75.70;;;;;;4980921;28;20196;-57
2021/10/21 12:08:31;;;;;;;2.15;0.80;;;15.80;77.40;;;;;;4977857;28;20244;-57
2021/10/21 12:10:59;;;;;;;2.40;0.83;;;16.00;77.10;;;;;;4973656;28;20233;-56
2021/10/21 12:13:38;;;;;;;0.80;0.73;;;15.80;76.80;;;;;;4979933;28;20239;-56
2021/10/21 12:16:16;;;;;;;1.70;0.85;;;15.50;76.60;;;;;;4980258;28;20214;-56
2021/10/21 12:18:42;;;;;;;3.92;1.00;;;15.70;77.50;;;;;;4977042;28;20284;-56
2021/10/21 12:21:08;;;;;;;1.70;1.10;;;15.90;77.10;;;;;;4980787;28;20188;-56
2021/10/21 12:23:43;;;;;;;2.90;1.00;;;15.90;76.40;;;;;;4977376;28;20370;-57
2021/10/21 12:26:20;;;;;;;2.35;1.00;;;16.10;76.10;;;;;;4974520;28;20195;-56
2021/10/21 12:28:47;;;;;;;1.17;0.80;;;16.00;76.50;;;;;;4978775;28;20195;-56
2021/10/21 12:31:22;;;;;;;3.17;0.90;;;16.40;74.50;;;;;;4963955;28;20611;-56
2021/10/21 12:33:50;;;;;;;1.52;0.70;;;16.40;74.40;;;;;;4979845;28;20539;-57
2021/10/21 12:36:21;;;;;;;1.77;1.05;;;16.50;73.80;;;;;;4973481;28;20219;-57
2021/10/21 12:38:51;;;;;;;4.43;0.90;;;16.60;73.90;;;;;;4979744;28;20707;-57
2021/10/21 12:41:18;;;;;;;2.03;0.70;;;16.50;73.30;;;;;;4972506;28;20266;-57
2021/10/21 12:43:57;;;;;;;2.67;1.10;;;16.20;73.40;;;;;;4946764;28;20580;-58
2021/10/21 12:46:28;;;;;;;1.60;0.80;;;16.50;74.30;;;;;;4965205;28;20220;-57
2021/10/21 12:49:16;;;;;;;1.13;0.70;;;16.30;73.90;;;;;;4970936;28;20244;-57
2021/10/21 12:51:43;;;;;;;1.10;0.90;;;16.30;75.30;;;;;;4955396;28;20231;-57
2021/10/21 12:54:21;;;;;;;1.25;0.70;;;16.30;75.10;;;;;;4968458;28;21825;-57
2021/10/21 12:56:55;;;;;;;2.28;1.00;;;16.30;75.30;;;;;;4970838;28;20672;-57